Dauphin Barker Airport
CYDN : now visible

Airfield :











YOU CAN JOIN US ON...

 
LOGIN :

Register | Disclaimer

   EN    FR    IT 

 









Legend :    VFR   Marginal VFR   IFR   Intensive IFR   Very Intensive IFR
Visi :
Ceiling :
>= 8 km
>= 3000ft
5 to 8 km
1000 to 3000 ft
1500m to 5 km
500 to 1000 ft
800 to 1500m
200 to 500 ft
< 800m
< 200 ft
Symbols :   Thunderstorms  Fog  Heavy snow  Heavy precipitations  Wind > 20 kt






- Airport Elevation : 999 ft
- IATA code : YDN


CYDN - Dauphin Barker

CURRENT METAR :
  • 231900Z AUTO 09004KT 9SM FEW026 OVC036 10/04 A2995 RMK SLP152

EXPIRED METARs :
  • 231815Z AUTO 10006KT 9SM SCT020 BKN027 OVC036 09/05 A2995 RMK SLP152
  • 231801Z AUTO 08006KT 9SM BKN024 OVC029 09/05 A2995 RMK SLP152
  • 231700Z AUTO 07008KT 9SM FEW013 OVC020 08/06 A2994 RMK SLP152
  • 231600Z AUTO 04009KT 9SM OVC013 07/06 A2993 RMK SLP148
  • 231500Z AUTO 06008KT 9SM FEW007 OVC013 06/06 A2993 RMK SLP149

TAF TAF CYDN
Valid from the 23 at 18:00 until the 24 at 06:00 UTC


231742Z 2318/2406 07008KT P6SM OVC020
TEMPO 2318/2320 SCT015 OVC030
FM232000 06008KT P6SM OVC030
FM240300 05008KT P6SM SCT030
BECMG 2404/2406 VRB03KT RMK FCST BASED ON AUTO OBS. NXT FCST BY 240000Z
CZWG FIR / North America



MET'MAP, your aeronautical weather chart ! - Copyright ORBIFLY December 2007 - Disclaimer

ORBIFLY MET'MAP TEAM :

Programming & Development : Alexandra Zaïnal
Original concept : Baudouin d'Aumeries
Technical & hardware support : Manuel Goepfert
Assistance : Marc-Olivier Méhu




SOURCES & CREDITS :

   NOAA       Earth
Advisory